createdAt,value
2023-01-28T00:01:44.822Z,11.53
2023-01-28T00:06:46.965Z,10.27
2023-01-28T00:11:49.128Z,11.47
2023-01-28T00:16:51.213Z,11.83
2023-01-28T00:21:53.504Z,11.33
2023-01-28T00:26:55.854Z,11.60
2023-01-28T00:31:58.283Z,10.67
2023-01-28T00:37:00.433Z,10.30
2023-01-28T00:42:02.714Z,10.10
2023-01-28T00:47:04.920Z,11.63
2023-01-28T00:52:07.257Z,10.07
2023-01-28T00:57:09.587Z,9.73
2023-01-28T01:02:14.628Z,9.53
2023-01-28T01:07:17.018Z,9.20
2023-01-28T01:12:19.695Z,11.17
2023-01-28T01:17:21.831Z,8.87
2023-01-28T01:22:24.322Z,9.73
2023-01-28T01:27:26.733Z,8.60
2023-01-28T01:32:37.228Z,9.20
2023-01-28T01:37:39.577Z,10.90
2023-01-28T01:42:42.563Z,10.93
2023-01-28T01:48:12.926Z,9.93
2023-01-28T01:53:20.268Z,9.47
2023-01-28T01:58:30.550Z,10.03
2023-01-28T02:03:54.177Z,10.63
2023-01-28T02:08:57.709Z,8.60
2023-01-28T02:14:05.622Z,9.70
2023-01-28T02:19:10.203Z,8.77
2023-01-28T02:24:42.852Z,8.93
2023-01-28T02:29:58.561Z,10.17
2023-01-28T02:35:48.892Z,8.93
2023-01-28T02:41:05.933Z,7.97
2023-01-28T02:46:45.392Z,8.20
2023-01-28T02:52:45.906Z,8.83
2023-01-28T02:58:38.086Z,10.30
2023-01-28T03:04:39.713Z,8.90
2023-01-28T03:09:45.903Z,9.73
2023-01-28T03:15:38.386Z,9.27
2023-01-28T03:21:28.741Z,9.83
2023-01-28T03:27:01.409Z,9.67
2023-01-28T03:32:23.873Z,11.07
2023-01-28T03:37:28.739Z,12.07
2023-01-28T03:42:52.452Z,11.97
2023-01-28T03:48:11.114Z,10.20
2023-01-28T03:53:16.881Z,10.50
2023-01-28T03:58:46.785Z,9.57
2023-01-28T04:03:50.829Z,10.20
2023-01-28T04:09:01.676Z,9.50
2023-01-28T04:14:22.546Z,10.00
2023-01-28T04:19:43.577Z,9.17
2023-01-28T04:24:45.749Z,9.93
2023-01-28T04:29:48.069Z,9.07
2023-01-28T04:35:06.803Z,8.90
2023-01-28T04:40:31.024Z,8.80
2023-01-28T04:45:38.617Z,9.80
2023-01-28T04:50:59.121Z,8.90
2023-01-28T04:56:21.799Z,9.67
2023-01-28T05:01:25.285Z,9.60
2023-01-28T05:06:28.394Z,8.87
2023-01-28T05:11:32.920Z,7.70
2023-01-28T05:16:38.951Z,9.50
2023-01-28T05:21:41.976Z,9.00
2023-01-28T05:26:53.375Z,8.47
2023-01-28T05:31:55.662Z,9.03
2023-01-28T05:36:58.196Z,9.60
2023-01-28T05:42:08.345Z,8.40
2023-01-28T05:47:15.810Z,9.77
2023-01-28T05:52:22.199Z,7.90
2023-01-28T05:57:24.567Z,8.23
2023-01-28T06:02:27.054Z,8.90
2023-01-28T06:07:32.537Z,8.33
2023-01-28T06:12:34.983Z,8.87
2023-01-28T06:17:55.610Z,8.50
2023-01-28T06:23:03.040Z,7.90
2023-01-28T06:28:05.535Z,7.50
2023-01-28T06:33:07.749Z,7.90
2023-01-28T06:38:10.692Z,7.30
2023-01-28T06:43:12.833Z,8.17
2023-01-28T06:48:14.923Z,7.20
2023-01-28T06:53:18.455Z,7.30
2023-01-28T06:58:20.833Z,6.97
2023-01-28T07:03:23.098Z,7.70
2023-01-28T07:08:25.507Z,7.13
2023-01-28T07:13:27.746Z,6.80
2023-01-28T07:18:30.516Z,7.20
2023-01-28T07:23:32.971Z,7.00
2023-01-28T07:28:35.265Z,6.07
2023-01-28T07:33:37.627Z,7.07
2023-01-28T07:38:39.946Z,6.20
2023-01-28T07:43:42.374Z,7.00
2023-01-28T07:48:45.909Z,6.60
2023-01-28T07:53:48.040Z,6.80
2023-01-28T07:58:51.223Z,6.33
2023-01-28T08:03:54.219Z,6.63
2023-01-28T08:08:56.603Z,6.43
2023-01-28T08:13:58.936Z,7.10
2023-01-28T08:19:01.637Z,6.30
2023-01-28T08:24:04.172Z,6.23
2023-01-28T08:29:06.709Z,6.90
2023-01-28T08:34:09.006Z,6.60
2023-01-28T08:39:11.223Z,6.27
2023-01-28T08:44:13.504Z,6.33
2023-01-28T08:49:15.888Z,5.10
2023-01-28T08:54:18.461Z,5.10
2023-01-28T08:59:20.753Z,7.10
2023-01-28T09:04:22.866Z,5.30
2023-01-28T09:09:25.120Z,5.67
2023-01-28T09:14:27.357Z,5.20
2023-01-28T09:19:29.831Z,4.67
2023-01-28T09:24:31.966Z,4.80
2023-01-28T09:29:38.723Z,5.47
2023-01-28T09:34:40.976Z,3.93
2023-01-28T09:39:43.289Z,4.70
2023-01-28T09:45:04.024Z,9.70
2023-01-28T09:50:16.074Z,4.50
2023-01-28T09:55:36.419Z,5.53
2023-01-28T10:01:00.713Z,5.10
2023-01-28T10:06:16.043Z,5.17
2023-01-28T10:11:38.634Z,5.77
2023-01-28T10:16:52.380Z,4.73
2023-01-28T10:22:07.875Z,5.23
2023-01-28T10:27:20.515Z,5.07
2023-01-28T10:32:36.801Z,7.30
2023-01-28T10:37:41.225Z,8.93
2023-01-28T10:42:44.363Z,8.30
2023-01-28T10:47:54.911Z,8.20
2023-01-28T10:53:01.181Z,7.63
2023-01-28T10:58:05.707Z,8.23
2023-01-28T11:03:19.378Z,8.80
2023-01-28T11:08:24.665Z,6.70
2023-01-28T11:13:29.676Z,5.27
2023-01-28T11:18:38.541Z,3.23
2023-01-28T11:24:07.521Z,4.70
2023-01-28T11:29:25.155Z,3.33
2023-01-28T11:34:33.666Z,3.27
2023-01-28T11:39:35.909Z,3.40
2023-01-28T11:44:39.101Z,3.33
2023-01-28T11:50:15.190Z,3.80
2023-01-28T11:55:44.396Z,5.60
2023-01-28T12:01:01.811Z,4.47
2023-01-28T12:06:42.578Z,3.60
2023-01-28T12:12:13.076Z,3.40
2023-01-28T12:17:42.759Z,3.30
2023-01-28T12:23:19.083Z,4.43
2023-01-28T12:28:39.430Z,4.80
2023-01-28T12:33:56.679Z,5.60
2023-01-28T12:39:27.817Z,6.17
2023-01-28T12:44:38.515Z,6.17
2023-01-28T12:49:51.203Z,5.90
2023-01-28T12:55:29.063Z,6.40
2023-01-28T13:00:42.197Z,9.73
2023-01-28T13:05:55.984Z,6.07
2023-01-28T13:11:01.119Z,6.40
2023-01-28T13:16:07.693Z,3.70
2023-01-28T13:21:25.055Z,4.83
2023-01-28T13:26:46.372Z,4.20
2023-01-28T13:31:55.067Z,3.57
2023-01-28T13:37:01.361Z,4.20
2023-01-28T13:42:23.251Z,4.63
2023-01-28T13:47:34.859Z,4.10
2023-01-28T13:52:53.089Z,4.57
2023-01-28T13:58:16.689Z,4.33
2023-01-28T14:04:08.202Z,4.03
2023-01-28T14:09:43.569Z,4.03
2023-01-28T14:15:23.218Z,4.90
2023-01-28T14:20:40.665Z,4.83
2023-01-28T14:26:17.676Z,5.63
2023-01-28T14:31:38.794Z,5.20
2023-01-28T14:36:44.197Z,4.93
2023-01-28T14:41:50.085Z,5.70
2023-01-28T14:47:25.827Z,5.10
2023-01-28T14:52:58.682Z,4.50
2023-01-28T14:58:12.320Z,5.17
2023-01-28T15:03:27.438Z,5.93
2023-01-28T15:08:32.357Z,13.87
2023-01-28T15:13:42.097Z,5.53
2023-01-28T15:18:45.620Z,5.53
2023-01-28T15:23:53.857Z,4.70
2023-01-28T15:28:57.366Z,3.97
2023-01-28T15:34:18.944Z,5.30
2023-01-28T15:39:24.766Z,4.80
2023-01-28T15:44:35.292Z,4.37
2023-01-28T15:49:45.967Z,5.47
2023-01-28T15:54:52.829Z,5.57
2023-01-28T16:00:07.419Z,5.00
2023-01-28T16:06:04.073Z,4.90
2023-01-28T16:11:08.432Z,4.20
2023-01-28T16:16:11.948Z,7.30
2023-01-28T16:21:24.049Z,8.20
2023-01-28T16:26:29.355Z,10.03
2023-01-28T16:31:33.920Z,9.53
2023-01-28T16:36:36.456Z,8.93
2023-01-28T16:41:42.654Z,10.20
2023-01-28T16:46:45.147Z,11.43
2023-01-28T16:51:47.763Z,9.53
2023-01-28T16:56:50.278Z,10.33
2023-01-28T17:01:52.624Z,10.17
2023-01-28T17:06:54.850Z,9.33
2023-01-28T17:11:57.501Z,8.80
2023-01-28T17:16:59.923Z,9.40
2023-01-28T17:22:02.042Z,9.23
2023-01-28T17:27:04.281Z,13.97
2023-01-28T17:32:07.127Z,12.87
2023-01-28T17:37:09.523Z,9.70
2023-01-28T17:42:12.383Z,14.33
2023-01-28T17:47:14.896Z,12.53
2023-01-28T17:52:17.174Z,11.17
2023-01-28T17:57:19.541Z,20.67
2023-01-28T18:02:21.871Z,12.93
2023-01-28T18:07:24.193Z,11.33
2023-01-28T18:12:26.678Z,14.13
2023-01-28T18:17:30.084Z,12.20
2023-01-28T18:22:32.879Z,12.00
2023-01-28T18:27:35.334Z,12.00
2023-01-28T18:32:37.566Z,10.13
2023-01-28T18:37:40.771Z,11.70
2023-01-28T18:42:42.887Z,8.27
2023-01-28T18:47:45.036Z,7.50
2023-01-28T18:52:47.393Z,9.17
2023-01-28T18:57:49.774Z,7.63
2023-01-28T19:02:52.088Z,9.63
2023-01-28T19:07:54.776Z,9.10
2023-01-28T19:12:57.150Z,10.63
2023-01-28T19:17:59.365Z,9.30
2023-01-28T19:23:01.719Z,10.33
2023-01-28T19:28:04.227Z,10.40
2023-01-28T19:33:07.025Z,12.80
2023-01-28T19:38:09.521Z,11.30
2023-01-28T19:43:11.898Z,11.37
2023-01-28T19:48:14.649Z,11.17
2023-01-28T19:53:17.049Z,12.90
2023-01-28T19:58:19.292Z,13.70
2023-01-28T20:03:21.632Z,16.70
2023-01-28T20:08:23.922Z,11.77
2023-01-28T20:13:26.111Z,8.80
2023-01-28T20:18:29.053Z,9.87
2023-01-28T20:23:31.951Z,9.00
2023-01-28T20:28:34.320Z,9.10
2023-01-28T20:33:37.784Z,9.10
2023-01-28T21:01:51.248Z,9.63
2023-01-28T21:21:37.834Z,9.23
2023-01-28T21:26:40.111Z,8.67
2023-01-28T21:31:42.671Z,8.60
2023-01-28T21:36:44.902Z,8.00
2023-01-28T21:41:48.154Z,7.87
2023-01-28T21:46:50.380Z,10.50
2023-01-28T21:51:52.805Z,8.30
2023-01-28T21:56:55.381Z,10.30
2023-01-28T22:02:10.622Z,10.37
2023-01-28T22:07:18.121Z,11.50
2023-01-28T22:12:21.754Z,11.80
2023-01-28T22:17:25.222Z,9.83
2023-01-28T22:22:27.958Z,10.63
2023-01-28T22:49:49.716Z,10.10
2023-01-28T22:54:52.116Z,9.10
2023-01-28T22:59:59.956Z,10.90
2023-01-28T23:05:03.001Z,11.00
2023-01-28T23:10:06.945Z,11.37
2023-01-28T23:15:29.595Z,9.57
2023-01-28T23:20:50.485Z,10.63
2023-01-28T23:25:53.569Z,10.10
2023-01-28T23:30:56.042Z,11.83
2023-01-28T23:35:59.440Z,10.40
2023-01-28T23:41:02.272Z,9.47
2023-01-28T23:46:04.905Z,10.77
